createdAt,value
2019-04-23T00:00:07.686Z,10.18
2019-04-23T00:02:50.772Z,7.95
2019-04-23T00:05:29.063Z,8.85
2019-04-23T00:08:04.174Z,6.47
2019-04-23T00:13:02.269Z,7.40
2019-04-23T00:16:26.508Z,8.13
2019-04-23T00:18:50.393Z,5.87
2019-04-23T00:21:42.412Z,7.95
2019-04-23T00:24:53.101Z,6.55
2019-04-23T00:27:19.543Z,6.40
2019-04-23T00:29:46.185Z,9.28
2019-04-23T00:34:51.450Z,10.18
2019-04-23T00:47:31.264Z,7.33
2019-04-23T00:50:06.368Z,10.13
2019-04-23T00:52:33.537Z,6.85
2019-04-23T00:55:12.759Z,5.78
2019-04-23T01:02:45.881Z,5.95
2019-04-23T01:05:20.293Z,8.13
2019-04-23T01:10:27.772Z,7.60
2019-04-23T01:12:59.362Z,8.33
2019-04-23T01:15:42.678Z,5.80
2019-04-23T01:20:50.960Z,7.00
2019-04-23T01:23:01.474Z,8.75
2019-04-23T01:25:51.601Z,8.18
2019-04-23T01:28:41.838Z,10.72
2019-04-23T01:31:18.288Z,8.03
2019-04-23T01:33:47.037Z,6.50
2019-04-23T01:43:51.662Z,13.58
2019-04-23T01:46:28.932Z,7.85
2019-04-23T01:51:39.926Z,8.53
2019-04-23T01:54:06.643Z,10.23
2019-04-23T01:56:38.616Z,10.30
2019-04-23T02:06:53.745Z,7.92
2019-04-23T02:09:25.291Z,9.13
2019-04-23T02:12:02.956Z,8.65
2019-04-23T02:17:00.133Z,6.80
2019-04-23T02:22:38.468Z,7.15
2019-04-23T02:25:26.547Z,8.78
2019-04-23T02:28:03.263Z,7.53
2019-04-23T02:30:54.946Z,9.35
2019-04-23T02:40:54.989Z,7.03
2019-04-23T02:50:57.885Z,6.22
2019-04-23T02:53:44.724Z,5.00
2019-04-23T02:58:41.927Z,7.22
2019-04-23T03:06:18.935Z,8.73
2019-04-23T03:11:26.707Z,7.50
2019-04-23T03:14:00.334Z,10.93
2019-04-23T03:16:55.033Z,8.60
2019-04-23T03:19:31.935Z,7.00
2019-04-23T03:36:13.992Z,7.67
2019-04-23T03:38:00.747Z,7.03
2019-04-23T03:43:06.713Z,6.60
2019-04-23T03:48:08.017Z,7.90
2019-04-23T03:50:35.931Z,7.58
2019-04-23T03:53:22.558Z,6.47
2019-04-23T03:55:47.995Z,6.75
2019-04-23T03:58:21.183Z,7.50
2019-04-23T04:01:01.430Z,6.75
2019-04-23T04:04:01.556Z,6.78
2019-04-23T04:08:26.761Z,6.55
2019-04-23T04:18:44.372Z,9.55
2019-04-23T04:21:18.482Z,6.85
2019-04-23T04:23:57.707Z,9.53
2019-04-23T04:26:22.790Z,6.12
2019-04-23T04:29:01.271Z,10.45
2019-04-23T04:31:34.045Z,6.50
2019-04-23T04:34:17.242Z,8.33
2019-04-23T04:41:44.106Z,7.25
2019-04-23T04:44:27.231Z,6.15
2019-04-23T04:46:47.839Z,10.90
2019-04-23T04:54:21.661Z,8.48
2019-04-23T04:59:35.521Z,13.32
2019-04-23T05:02:08.599Z,10.00
2019-04-23T05:04:48.430Z,9.33
2019-04-23T05:09:48.524Z,7.78
2019-04-23T05:20:30.654Z,8.43
2019-04-23T05:23:06.123Z,6.45
2019-04-23T05:25:25.550Z,7.25
2019-04-23T05:28:08.197Z,6.90
2019-04-23T05:30:39.489Z,6.22
2019-04-23T05:33:14.573Z,7.47
2019-04-23T05:40:55.250Z,11.15
2019-04-23T05:43:19.112Z,10.55
2019-04-23T05:45:59.300Z,14.33
2019-04-23T05:48:35.290Z,8.78
2019-04-23T05:53:35.646Z,11.43
2019-04-23T06:04:17.706Z,8.55
2019-04-23T06:16:49.484Z,8.38
2019-04-23T06:21:57.855Z,10.15
2019-04-23T06:24:26.103Z,8.75
2019-04-23T06:27:01.247Z,15.50
2019-04-23T06:29:32.136Z,12.63
2019-04-23T06:32:02.769Z,7.03
2019-04-23T06:34:33.678Z,7.75
2019-04-23T06:39:44.057Z,6.95
2019-04-23T06:42:14.598Z,7.12
2019-04-23T06:47:29.826Z,7.90
2019-04-23T06:52:25.110Z,8.95
2019-04-23T06:55:09.074Z,8.40
2019-04-23T06:57:31.775Z,9.48
2019-04-23T07:00:17.734Z,9.33
2019-04-23T07:02:44.424Z,10.75
2019-04-23T07:07:55.211Z,9.10
2019-04-23T07:10:25.233Z,9.18
2019-04-23T07:13:04.856Z,7.28
2019-04-23T07:18:04.146Z,11.88
2019-04-23T07:20:46.502Z,7.67
2019-04-23T07:23:17.102Z,7.25
2019-04-23T07:25:48.471Z,8.60
2019-04-23T07:28:21.704Z,6.80
2019-04-23T07:30:50.043Z,6.72
2019-04-23T07:33:29.115Z,9.98
2019-04-23T07:36:01.945Z,11.90
2019-04-23T07:39:07.647Z,17.70
2019-04-23T07:45:45.379Z,17.27
2019-04-23T07:48:16.490Z,7.97
2019-04-23T07:50:47.934Z,10.15
2019-04-23T07:58:23.793Z,17.17
2019-04-23T08:00:56.771Z,8.05
2019-04-23T08:03:29.035Z,19.17
2019-04-23T08:08:36.411Z,18.55
2019-04-23T08:13:55.928Z,10.13
2019-04-23T08:16:31.180Z,11.78
2019-04-23T08:18:54.344Z,7.40
2019-04-23T08:21:51.512Z,9.58
2019-04-23T08:24:23.701Z,11.12
2019-04-23T08:26:59.736Z,22.70
2019-04-23T08:29:50.923Z,15.08
2019-04-23T08:32:35.063Z,13.70
2019-04-23T08:35:04.361Z,13.08
2019-04-23T08:37:49.721Z,13.40
2019-04-23T08:40:13.305Z,9.30
2019-04-23T08:42:54.792Z,9.68
2019-04-23T08:45:35.178Z,11.05
2019-04-23T08:48:27.517Z,9.10
2019-04-23T08:51:03.513Z,12.47
2019-04-23T08:56:31.940Z,21.90
2019-04-23T08:59:22.549Z,10.08
2019-04-23T09:01:57.925Z,10.55
2019-04-23T09:04:22.003Z,9.83
2019-04-23T09:07:09.646Z,12.50
2019-04-23T09:12:08.525Z,18.73
2019-04-23T09:14:51.049Z,10.98
2019-04-23T09:17:30.470Z,35.40
2019-04-23T09:20:15.136Z,25.10
2019-04-23T09:22:35.548Z,22.37
2019-04-23T09:25:20.085Z,40.28
2019-04-23T09:27:56.397Z,33.53
2019-04-23T09:30:28.211Z,11.03
2019-04-23T09:33:14.310Z,32.40
2019-04-23T09:36:10.839Z,19.30
2019-04-23T09:38:47.552Z,24.12
2019-04-23T09:41:31.169Z,31.45
2019-04-23T09:44:41.531Z,28.57
2019-04-23T09:47:08.347Z,24.95
2019-04-23T09:49:44.367Z,24.45
2019-04-23T09:57:10.467Z,18.32
2019-04-23T10:02:11.689Z,13.10
2019-04-23T10:04:41.133Z,10.88
2019-04-23T10:07:17.973Z,6.17
2019-04-23T10:09:36.231Z,4.03
2019-04-23T10:12:09.975Z,13.30
2019-04-23T10:14:55.153Z,11.63
2019-04-23T10:17:16.159Z,12.53
2019-04-23T10:19:48.727Z,11.45
2019-04-23T10:22:20.002Z,7.85
2019-04-23T10:24:54.845Z,9.10
2019-04-23T10:27:27.374Z,6.55
2019-04-23T10:29:59.615Z,6.35
2019-04-23T10:32:33.514Z,12.07
2019-04-23T10:35:20.427Z,6.15
2019-04-23T10:37:50.949Z,8.83
2019-04-23T10:40:25.500Z,7.30
2019-04-23T10:43:07.416Z,13.70
2019-04-23T10:46:38.054Z,8.83
2019-04-23T10:53:05.018Z,7.25
2019-04-23T10:59:15.040Z,6.67
2019-04-23T11:10:21.354Z,10.88
2019-04-23T11:13:17.552Z,4.80
2019-04-23T11:15:55.722Z,5.60
2019-04-23T11:18:33.803Z,46.75
2019-04-23T11:21:12.020Z,5.83
2019-04-23T11:23:34.421Z,5.95
2019-04-23T11:29:15.059Z,9.63
2019-04-23T11:32:19.611Z,6.28
2019-04-23T11:39:39.775Z,6.92
2019-04-23T11:42:19.611Z,6.00
2019-04-23T11:44:56.187Z,9.25
2019-04-23T11:50:09.649Z,9.13
2019-04-23T11:52:48.579Z,4.20
2019-04-23T11:55:33.077Z,5.22
2019-04-23T11:58:07.518Z,7.08
2019-04-23T12:00:46.328Z,7.28
2019-04-23T12:03:36.686Z,3.33
2019-04-23T12:09:58.157Z,7.72
2019-04-23T12:12:28.523Z,5.90
2019-04-23T12:15:28.529Z,3.58
2019-04-23T12:18:10.125Z,2.75
2019-04-23T12:21:43.879Z,7.42
2019-04-23T12:27:33.288Z,3.67
2019-04-23T12:31:05.317Z,2.83
2019-04-23T12:34:18.013Z,3.95
2019-04-23T12:36:56.831Z,7.80
2019-04-23T12:39:37.731Z,2.72
2019-04-23T12:42:19.726Z,19.15
2019-04-23T12:44:38.602Z,6.75
2019-04-23T12:47:30.510Z,5.10
2019-04-23T12:52:34.173Z,4.10
2019-04-23T12:57:40.251Z,2.85
2019-04-23T13:00:23.253Z,5.47
2019-04-23T13:03:08.672Z,2.42
2019-04-23T13:05:31.706Z,14.90
2019-04-23T13:08:17.019Z,4.42
2019-04-23T13:10:45.315Z,1.98
2019-04-23T13:16:02.831Z,4.05
2019-04-23T13:21:40.986Z,5.65
2019-04-23T13:23:55.791Z,5.20
2019-04-23T13:26:35.668Z,31.62
2019-04-23T13:29:32.938Z,3.12
2019-04-23T13:31:51.960Z,3.52
2019-04-23T13:34:38.061Z,4.83
2019-04-23T13:37:13.758Z,6.62
2019-04-23T13:39:42.201Z,3.20
2019-04-23T13:42:22.466Z,3.05
2019-04-23T13:44:57.440Z,3.42
2019-04-23T13:50:34.587Z,13.85
2019-04-23T13:53:26.560Z,5.65
2019-04-23T13:55:26.733Z,4.55
2019-04-23T14:03:19.764Z,2.00
2019-04-23T14:06:16.494Z,1.70
2019-04-23T14:14:30.217Z,5.28
2019-04-23T14:17:15.304Z,4.15
2019-04-23T14:20:16.896Z,4.92
2019-04-23T14:23:39.161Z,4.53
2019-04-23T14:28:52.685Z,2.22
2019-04-23T14:31:23.119Z,4.85
2019-04-23T14:36:52.030Z,2.50
2019-04-23T14:39:43.739Z,3.22
2019-04-23T14:45:08.068Z,3.55
2019-04-23T14:47:47.852Z,1.82
2019-04-23T14:50:34.852Z,2.20
2019-04-23T14:53:18.453Z,2.60
2019-04-23T14:55:57.998Z,3.55
2019-04-23T14:58:31.061Z,6.10
2019-04-23T15:01:08.920Z,1.92
2019-04-23T15:03:35.312Z,3.87
2019-04-23T15:06:12.426Z,3.60
2019-04-23T15:08:52.060Z,6.40
2019-04-23T15:11:23.036Z,4.10
2019-04-23T15:13:45.609Z,4.53
2019-04-23T15:19:31.169Z,304.07
2019-04-23T15:24:27.710Z,204.10
2019-04-23T15:29:19.661Z,70.70
2019-04-23T15:32:13.787Z,64.85
2019-04-23T15:34:47.068Z,47.20
2019-04-23T15:37:36.304Z,63.90
2019-04-23T15:39:49.591Z,119.28
2019-04-23T15:44:55.688Z,216.88
2019-04-23T15:52:44.405Z,220.50
2019-04-23T16:00:24.932Z,51.33
2019-04-23T16:02:35.254Z,28.85
2019-04-23T16:05:09.408Z,39.67
2019-04-23T16:07:57.030Z,38.95
2019-04-23T16:10:51.850Z,25.65
2019-04-23T16:13:42.643Z,6.65
2019-04-23T16:15:58.703Z,17.42
2019-04-23T16:18:37.405Z,20.90
2019-04-23T16:21:10.647Z,14.15
2019-04-23T16:26:14.547Z,14.55
2019-04-23T16:29:07.320Z,11.45
2019-04-23T16:36:41.399Z,7.60
2019-04-23T16:39:10.766Z,7.58
2019-04-23T16:41:51.979Z,5.85
2019-04-23T16:44:24.349Z,7.28
2019-04-23T16:46:55.850Z,5.10
2019-04-23T16:51:57.165Z,3.08
2019-04-23T16:54:42.227Z,3.05
2019-04-23T16:59:48.684Z,3.00
2019-04-23T17:02:14.807Z,2.45
2019-04-23T17:04:49.958Z,3.40
2019-04-23T17:07:16.726Z,3.37
2019-04-23T17:12:17.479Z,2.37
2019-04-23T17:15:05.442Z,5.28
2019-04-23T17:17:34.459Z,2.45
2019-04-23T17:20:38.705Z,4.47
2019-04-23T17:23:16.616Z,2.42
2019-04-23T17:28:18.380Z,5.28
2019-04-23T17:31:03.939Z,2.62
2019-04-23T17:39:07.815Z,1.57
2019-04-23T17:42:21.216Z,3.75
2019-04-23T17:50:23.515Z,7.75
2019-04-23T17:53:00.963Z,5.60
2019-04-23T17:55:31.414Z,2.35
2019-04-23T17:58:06.119Z,3.50
2019-04-23T18:03:11.100Z,3.80
2019-04-23T18:05:52.314Z,2.20
2019-04-23T18:08:19.057Z,2.90
2019-04-23T18:11:00.295Z,2.85
2019-04-23T18:13:31.169Z,2.77
2019-04-23T18:16:21.266Z,2.85
2019-04-23T18:18:48.345Z,3.20
2019-04-23T18:21:44.108Z,22.40
2019-04-23T18:27:19.140Z,60.92
2019-04-23T18:30:10.923Z,56.83
2019-04-23T18:33:12.485Z,143.37
2019-04-23T18:37:58.447Z,92.45
2019-04-23T18:40:40.474Z,79.58
2019-04-23T18:43:12.974Z,62.30
2019-04-23T18:46:58.815Z,57.05
2019-04-23T18:57:40.346Z,26.73
2019-04-23T19:00:03.362Z,12.60
2019-04-23T19:02:53.723Z,20.35
2019-04-23T19:05:40.569Z,23.55
2019-04-23T19:11:40.415Z,12.18
2019-04-23T19:13:57.676Z,12.93
2019-04-23T19:17:07.283Z,11.95
2019-04-23T19:19:30.934Z,9.13
2019-04-23T19:25:01.598Z,7.75
2019-04-23T19:30:26.532Z,10.80
2019-04-23T19:33:25.353Z,6.78
2019-04-23T19:36:14.445Z,6.75
2019-04-23T19:38:43.420Z,5.87
2019-04-23T19:41:27.462Z,7.10
2019-04-23T19:44:08.951Z,7.33
2019-04-23T19:49:35.805Z,5.22
2019-04-23T19:52:06.841Z,4.30
2019-04-23T19:55:42.709Z,7.45
2019-04-23T20:00:35.481Z,11.33
2019-04-23T20:02:55.361Z,7.30
2019-04-23T20:05:08.828Z,6.83
2019-04-23T20:07:54.855Z,7.40
2019-04-23T20:10:21.301Z,7.80
2019-04-23T20:12:51.869Z,10.00
2019-04-23T20:15:41.148Z,4.22
2019-04-23T20:18:05.343Z,4.37
2019-04-23T20:20:49.653Z,7.35
2019-04-23T20:23:40.481Z,7.00
2019-04-23T20:37:17.579Z,12.47
2019-04-23T20:47:22.744Z,4.87
2019-04-23T20:49:48.530Z,7.72
2019-04-23T20:52:29.183Z,5.28
2019-04-23T20:55:08.363Z,6.25
2019-04-23T20:57:55.624Z,9.78
2019-04-23T21:00:25.967Z,6.78
2019-04-23T21:05:41.216Z,7.25
2019-04-23T21:08:30.175Z,6.87
2019-04-23T21:11:05.379Z,5.90
2019-04-23T21:13:57.562Z,5.03
2019-04-23T21:15:58.371Z,7.90
2019-04-23T21:18:37.460Z,6.92
2019-04-23T21:21:13.319Z,4.95
2019-04-23T21:23:45.329Z,6.60
2019-04-23T21:26:01.859Z,5.25
2019-04-23T21:28:50.635Z,4.75
2019-04-23T21:31:22.735Z,6.87
2019-04-23T21:34:05.967Z,6.08
2019-04-23T21:36:39.917Z,7.67
2019-04-23T21:39:34.370Z,6.17
2019-04-23T21:42:22.624Z,7.85
2019-04-23T21:44:53.502Z,5.33
2019-04-23T21:47:30.622Z,4.42
2019-04-23T21:52:33.996Z,4.80
2019-04-23T21:57:45.080Z,4.90
2019-04-23T22:00:07.986Z,4.17
2019-04-23T22:05:24.255Z,3.02
2019-04-23T22:07:56.736Z,8.03
2019-04-23T22:10:26.183Z,5.25
2019-04-23T22:13:10.437Z,5.75
2019-04-23T22:15:45.086Z,7.08
2019-04-23T22:18:06.618Z,5.42
2019-04-23T22:21:06.607Z,6.80
2019-04-23T22:25:56.972Z,5.50
2019-04-23T22:28:31.440Z,8.03
2019-04-23T22:33:39.470Z,5.90
2019-04-23T22:36:07.690Z,8.55
2019-04-23T22:38:37.671Z,4.28
2019-04-23T22:41:14.306Z,4.03
2019-04-23T22:43:43.050Z,4.20
2019-04-23T22:49:01.460Z,6.08
2019-04-23T22:54:03.032Z,3.58
2019-04-23T22:56:25.960Z,7.42
2019-04-23T23:04:20.565Z,4.45
2019-04-23T23:06:55.526Z,3.20
2019-04-23T23:11:57.867Z,3.45
2019-04-23T23:17:11.537Z,3.58
2019-04-23T23:19:49.367Z,6.47
2019-04-23T23:24:57.636Z,5.22
2019-04-23T23:30:02.791Z,2.70
2019-04-23T23:32:31.376Z,5.90
2019-04-23T23:37:34.495Z,1.95
2019-04-23T23:42:42.640Z,4.80
2019-04-23T23:45:21.584Z,1.67
2019-04-23T23:47:51.575Z,4.00
2019-04-23T23:53:18.016Z,3.72
2019-04-23T23:58:06.791Z,2.45
